sensor_id;sensor_type;location;lat;lon;timestamp;P1;durP1;ratioP1;P2;durP2;ratioP2
67564;SDS011;54393;53.556;49.216;2023-05-16T00:00:37;2.80;;;2.60;;
67564;SDS011;54393;53.556;49.216;2023-05-16T00:03:04;2.40;;;2.00;;
67564;SDS011;54393;53.556;49.216;2023-05-16T00:05:31;2.25;;;2.10;;
67564;SDS011;54393;53.556;49.216;2023-05-16T00:07:58;2.40;;;2.20;;
67564;SDS011;54393;53.556;49.216;2023-05-16T00:10:24;2.90;;;2.60;;
67564;SDS011;54393;53.556;49.216;2023-05-16T00:12:51;2.40;;;2.28;;
67564;SDS011;54393;53.556;49.216;2023-05-16T00:15:18;2.42;;;2.22;;
67564;SDS011;54393;53.556;49.216;2023-05-16T00:17:44;2.60;;;2.40;;
67564;SDS011;54393;53.556;49.216;2023-05-16T00:20:12;2.47;;;2.28;;
67564;SDS011;54393;53.556;49.216;2023-05-16T00:22:41;2.78;;;2.08;;
67564;SDS011;54393;53.556;49.216;2023-05-16T00:25:08;2.42;;;2.22;;
67564;SDS011;54393;53.556;49.216;2023-05-16T00:27:35;2.83;;;2.62;;
67564;SDS011;54393;53.556;49.216;2023-05-16T00:30:02;2.30;;;2.10;;
67564;SDS011;54393;53.556;49.216;2023-05-16T00:32:29;2.28;;;2.08;;
67564;SDS011;54393;53.556;49.216;2023-05-16T00:34:55;2.87;;;2.47;;
67564;SDS011;54393;53.556;49.216;2023-05-16T00:37:22;3.03;;;2.28;;
67564;SDS011;54393;53.556;49.216;2023-05-16T00:39:48;2.10;;;2.00;;
67564;SDS011;54393;53.556;49.216;2023-05-16T00:42:15;2.45;;;2.25;;
67564;SDS011;54393;53.556;49.216;2023-05-16T00:44:43;2.75;;;2.55;;
67564;SDS011;54393;53.556;49.216;2023-05-16T00:47:10;2.45;;;2.25;;
67564;SDS011;54393;53.556;49.216;2023-05-16T00:49:36;1.98;;;1.87;;
67564;SDS011;54393;53.556;49.216;2023-05-16T00:52:03;2.12;;;2.03;;
67564;SDS011;54393;53.556;49.216;2023-05-16T00:54:30;2.33;;;2.12;;
67564;SDS011;54393;53.556;49.216;2023-05-16T00:56:56;2.47;;;2.20;;
67564;SDS011;54393;53.556;49.216;2023-05-16T00:59:23;2.22;;;2.12;;
67564;SDS011;54393;53.556;49.216;2023-05-16T01:01:49;2.33;;;2.17;;
67564;SDS011;54393;53.556;49.216;2023-05-16T01:04:16;2.30;;;2.20;;
67564;SDS011;54393;53.556;49.216;2023-05-16T01:06:43;2.55;;;2.35;;
67564;SDS011;54393;53.556;49.216;2023-05-16T01:09:10;1.95;;;1.85;;
67564;SDS011;54393;53.556;49.216;2023-05-16T01:17:12;2.47;;;2.33;;
67564;SDS011;54393;53.556;49.216;2023-05-16T01:19:49;2.60;;;2.40;;
67564;SDS011;54393;53.556;49.216;2023-05-16T01:28:18;2.53;;;2.00;;
67564;SDS011;54393;53.556;49.216;2023-05-16T01:30:45;2.15;;;2.05;;
67564;SDS011;54393;53.556;49.216;2023-05-16T01:33:11;2.50;;;2.30;;
67564;SDS011;54393;53.556;49.216;2023-05-16T01:35:51;2.30;;;2.03;;
67564;SDS011;54393;53.556;49.216;2023-05-16T01:38:41;2.33;;;2.22;;
67564;SDS011;54393;53.556;49.216;2023-05-16T01:44:30;2.42;;;2.05;;
67564;SDS011;54393;53.556;49.216;2023-05-16T01:47:05;2.40;;;2.20;;
67564;SDS011;54393;53.556;49.216;2023-05-16T01:49:42;2.37;;;2.17;;
67564;SDS011;54393;53.556;49.216;2023-05-16T01:52:27;2.10;;;2.00;;
67564;SDS011;54393;53.556;49.216;2023-05-16T01:54:58;2.42;;;2.22;;
67564;SDS011;54393;53.556;49.216;2023-05-16T01:57:25;2.12;;;2.03;;
67564;SDS011;54393;53.556;49.216;2023-05-16T01:59:53;2.00;;;1.90;;
67564;SDS011;54393;53.556;49.216;2023-05-16T02:02:19;2.37;;;2.17;;
67564;SDS011;54393;53.556;49.216;2023-05-16T02:04:46;1.83;;;1.73;;
67564;SDS011;54393;53.556;49.216;2023-05-16T02:07:12;2.20;;;2.10;;
67564;SDS011;54393;53.556;49.216;2023-05-16T02:09:39;2.00;;;1.90;;
67564;SDS011;54393;53.556;49.216;2023-05-16T02:12:06;1.90;;;1.80;;
67564;SDS011;54393;53.556;49.216;2023-05-16T02:14:32;2.00;;;1.90;;
67564;SDS011;54393;53.556;49.216;2023-05-16T02:16:59;2.33;;;1.85;;
67564;SDS011;54393;53.556;49.216;2023-05-16T02:19:25;1.92;;;1.83;;
67564;SDS011;54393;53.556;49.216;2023-05-16T02:21:52;2.20;;;2.00;;
67564;SDS011;54393;53.556;49.216;2023-05-16T02:24:18;2.10;;;1.70;;
67564;SDS011;54393;53.556;49.216;2023-05-16T02:26:45;1.98;;;1.87;;
67564;SDS011;54393;53.556;49.216;2023-05-16T02:29:11;3.72;;;2.00;;
67564;SDS011;54393;53.556;49.216;2023-05-16T02:31:39;2.00;;;1.90;;
67564;SDS011;54393;53.556;49.216;2023-05-16T02:34:06;2.20;;;2.00;;
67564;SDS011;54393;53.556;49.216;2023-05-16T02:36:33;1.80;;;1.70;;
67564;SDS011;54393;53.556;49.216;2023-05-16T02:39:00;2.12;;;2.03;;
67564;SDS011;54393;53.556;49.216;2023-05-16T02:41:28;1.80;;;1.70;;
67564;SDS011;54393;53.556;49.216;2023-05-16T02:43:55;2.10;;;1.95;;
67564;SDS011;54393;53.556;49.216;2023-05-16T02:46:23;1.95;;;1.85;;
67564;SDS011;54393;53.556;49.216;2023-05-16T02:48:57;2.77;;;2.00;;
67564;SDS011;54393;53.556;49.216;2023-05-16T02:51:25;2.08;;;1.98;;
67564;SDS011;54393;53.556;49.216;2023-05-16T02:53:52;1.75;;;1.65;;
67564;SDS011;54393;53.556;49.216;2023-05-16T02:56:21;1.90;;;1.80;;
67564;SDS011;54393;53.556;49.216;2023-05-16T02:58:48;2.08;;;1.98;;
67564;SDS011;54393;53.556;49.216;2023-05-16T03:01:15;2.37;;;2.17;;
67564;SDS011;54393;53.556;49.216;2023-05-16T03:03:42;2.20;;;2.10;;
67564;SDS011;54393;53.556;49.216;2023-05-16T03:06:08;2.25;;;2.05;;
67564;SDS011;54393;53.556;49.216;2023-05-16T03:08:35;2.50;;;2.35;;
67564;SDS011;54393;53.556;49.216;2023-05-16T03:11:02;2.28;;;2.17;;
67564;SDS011;54393;53.556;49.216;2023-05-16T03:13:29;2.33;;;2.22;;
67564;SDS011;54393;53.556;49.216;2023-05-16T03:15:56;2.33;;;2.12;;
67564;SDS011;54393;53.556;49.216;2023-05-16T03:18:22;2.12;;;2.03;;
67564;SDS011;54393;53.556;49.216;2023-05-16T03:20:49;2.03;;;1.92;;
67564;SDS011;54393;53.556;49.216;2023-05-16T03:23:17;2.67;;;2.40;;
67564;SDS011;54393;53.556;49.216;2023-05-16T03:25:44;2.47;;;2.05;;
67564;SDS011;54393;53.556;49.216;2023-05-16T03:28:11;3.05;;;2.80;;
67564;SDS011;54393;53.556;49.216;2023-05-16T03:30:38;2.75;;;2.55;;
67564;SDS011;54393;53.556;49.216;2023-05-16T03:33:04;2.28;;;2.17;;
67564;SDS011;54393;53.556;49.216;2023-05-16T03:35:31;2.37;;;2.10;;
67564;SDS011;54393;53.556;49.216;2023-05-16T03:37:57;2.40;;;2.30;;
67564;SDS011;54393;53.556;49.216;2023-05-16T03:40:24;2.92;;;2.30;;
67564;SDS011;54393;53.556;49.216;2023-05-16T03:42:50;3.12;;;2.28;;
67564;SDS011;54393;53.556;49.216;2023-05-16T03:45:17;2.58;;;2.37;;
67564;SDS011;54393;53.556;49.216;2023-05-16T03:47:43;1.98;;;1.87;;
67564;SDS011;54393;53.556;49.216;2023-05-16T03:50:10;2.37;;;2.20;;
67564;SDS011;54393;53.556;49.216;2023-05-16T03:52:37;2.25;;;2.12;;
67564;SDS011;54393;53.556;49.216;2023-05-16T03:55:03;2.45;;;2.35;;
67564;SDS011;54393;53.556;49.216;2023-05-16T03:57:30;2.37;;;2.28;;
67564;SDS011;54393;53.556;49.216;2023-05-16T03:59:57;2.85;;;2.65;;
67564;SDS011;54393;53.556;49.216;2023-05-16T04:02:24;2.45;;;2.35;;
67564;SDS011;54393;53.556;49.216;2023-05-16T04:04:50;2.60;;;2.40;;
67564;SDS011;54393;53.556;49.216;2023-05-16T04:07:17;2.50;;;2.35;;
67564;SDS011;54393;53.556;49.216;2023-05-16T04:09:43;2.40;;;2.20;;
67564;SDS011;54393;53.556;49.216;2023-05-16T04:12:10;2.90;;;2.70;;
67564;SDS011;54393;53.556;49.216;2023-05-16T04:14:36;2.83;;;2.50;;
67564;SDS011;54393;53.556;49.216;2023-05-16T04:17:03;2.55;;;2.35;;
67564;SDS011;54393;53.556;49.216;2023-05-16T04:19:30;2.35;;;2.20;;
67564;SDS011;54393;53.556;49.216;2023-05-16T04:21:59;2.58;;;2.45;;
67564;SDS011;54393;53.556;49.216;2023-05-16T04:24:25;2.62;;;2.42;;
67564;SDS011;54393;53.556;49.216;2023-05-16T04:26:53;3.17;;;2.53;;
67564;SDS011;54393;53.556;49.216;2023-05-16T04:29:20;2.58;;;2.37;;
67564;SDS011;54393;53.556;49.216;2023-05-16T04:31:46;4.55;;;2.78;;
67564;SDS011;54393;53.556;49.216;2023-05-16T04:34:13;2.15;;;2.05;;
67564;SDS011;54393;53.556;49.216;2023-05-16T04:36:40;2.62;;;2.50;;
67564;SDS011;54393;53.556;49.216;2023-05-16T04:39:06;2.70;;;2.50;;
67564;SDS011;54393;53.556;49.216;2023-05-16T04:41:33;2.80;;;2.70;;
67564;SDS011;54393;53.556;49.216;2023-05-16T04:44:01;3.28;;;2.55;;
67564;SDS011;54393;53.556;49.216;2023-05-16T04:46:30;2.67;;;2.47;;
67564;SDS011;54393;53.556;49.216;2023-05-16T04:48:57;2.50;;;2.30;;
67564;SDS011;54393;53.556;49.216;2023-05-16T04:51:26;3.22;;;3.00;;
67564;SDS011;54393;53.556;49.216;2023-05-16T04:53:53;2.80;;;2.67;;
67564;SDS011;54393;53.556;49.216;2023-05-16T04:56:20;3.00;;;2.62;;
67564;SDS011;54393;53.556;49.216;2023-05-16T04:58:46;2.87;;;2.67;;
67564;SDS011;54393;53.556;49.216;2023-05-16T05:01:13;2.65;;;2.50;;
67564;SDS011;54393;53.556;49.216;2023-05-16T05:03:40;2.75;;;2.62;;
67564;SDS011;54393;53.556;49.216;2023-05-16T05:06:06;2.65;;;2.45;;
67564;SDS011;54393;53.556;49.216;2023-05-16T05:08:33;2.67;;;2.47;;
67564;SDS011;54393;53.556;49.216;2023-05-16T05:10:59;2.80;;;2.60;;
67564;SDS011;54393;53.556;49.216;2023-05-16T05:13:26;3.00;;;2.80;;
67564;SDS011;54393;53.556;49.216;2023-05-16T05:15:53;3.70;;;2.75;;
67564;SDS011;54393;53.556;49.216;2023-05-16T05:18:19;2.67;;;2.50;;
67564;SDS011;54393;53.556;49.216;2023-05-16T05:20:46;3.30;;;2.85;;
67564;SDS011;54393;53.556;49.216;2023-05-16T05:23:14;3.10;;;2.90;;
67564;SDS011;54393;53.556;49.216;2023-05-16T05:25:40;2.72;;;2.53;;
67564;SDS011;54393;53.556;49.216;2023-05-16T05:28:07;3.28;;;3.00;;
67564;SDS011;54393;53.556;49.216;2023-05-16T05:30:33;3.72;;;2.92;;
67564;SDS011;54393;53.556;49.216;2023-05-16T05:33:00;2.90;;;2.70;;
67564;SDS011;54393;53.556;49.216;2023-05-16T05:35:27;4.18;;;3.00;;
67564;SDS011;54393;53.556;49.216;2023-05-16T05:37:53;3.62;;;2.90;;
67564;SDS011;54393;53.556;49.216;2023-05-16T05:40:20;2.87;;;2.67;;
67564;SDS011;54393;53.556;49.216;2023-05-16T05:42:46;3.83;;;3.40;;
67564;SDS011;54393;53.556;49.216;2023-05-16T05:45:13;6.07;;;3.08;;
67564;SDS011;54393;53.556;49.216;2023-05-16T05:47:40;6.32;;;3.30;;
67564;SDS011;54393;53.556;49.216;2023-05-16T05:50:07;8.52;;;3.55;;
67564;SDS011;54393;53.556;49.216;2023-05-16T05:52:37;4.87;;;3.25;;
67564;SDS011;54393;53.556;49.216;2023-05-16T05:55:04;4.55;;;3.53;;
67564;SDS011;54393;53.556;49.216;2023-05-16T05:57:31;7.82;;;3.47;;
67564;SDS011;54393;53.556;49.216;2023-05-16T05:59:58;4.50;;;3.30;;
67564;SDS011;54393;53.556;49.216;2023-05-16T06:02:24;8.48;;;3.90;;
67564;SDS011;54393;53.556;49.216;2023-05-16T06:04:51;4.47;;;3.80;;
67564;SDS011;54393;53.556;49.216;2023-05-16T06:07:17;10.27;;;3.22;;
67564;SDS011;54393;53.556;49.216;2023-05-16T06:09:43;4.80;;;3.45;;
67564;SDS011;54393;53.556;49.216;2023-05-16T06:12:10;4.47;;;3.25;;
67564;SDS011;54393;53.556;49.216;2023-05-16T06:14:37;6.20;;;3.37;;
67564;SDS011;54393;53.556;49.216;2023-05-16T06:17:03;4.43;;;3.10;;
67564;SDS011;54393;53.556;49.216;2023-05-16T06:19:30;5.07;;;4.18;;
67564;SDS011;54393;53.556;49.216;2023-05-16T06:21:56;5.87;;;4.00;;
67564;SDS011;54393;53.556;49.216;2023-05-16T06:24:23;12.75;;;4.00;;
67564;SDS011;54393;53.556;49.216;2023-05-16T06:26:49;4.15;;;3.83;;
67564;SDS011;54393;53.556;49.216;2023-05-16T06:29:16;5.95;;;3.90;;
67564;SDS011;54393;53.556;49.216;2023-05-16T06:31:43;4.70;;;4.22;;
67564;SDS011;54393;53.556;49.216;2023-05-16T06:34:10;5.40;;;4.00;;
67564;SDS011;54393;53.556;49.216;2023-05-16T06:36:37;6.65;;;3.90;;
67564;SDS011;54393;53.556;49.216;2023-05-16T06:39:03;6.40;;;3.97;;
67564;SDS011;54393;53.556;49.216;2023-05-16T06:41:30;6.78;;;4.35;;
67564;SDS011;54393;53.556;49.216;2023-05-16T06:43:56;6.40;;;4.37;;
67564;SDS011;54393;53.556;49.216;2023-05-16T06:46:23;6.75;;;4.40;;
67564;SDS011;54393;53.556;49.216;2023-05-16T06:48:50;9.40;;;5.10;;
67564;SDS011;54393;53.556;49.216;2023-05-16T06:51:16;6.32;;;4.30;;
67564;SDS011;54393;53.556;49.216;2023-05-16T06:53:43;5.87;;;4.47;;
67564;SDS011;54393;53.556;49.216;2023-05-16T06:56:10;4.72;;;4.32;;
67564;SDS011;54393;53.556;49.216;2023-05-16T06:58:37;5.60;;;4.97;;
67564;SDS011;54393;53.556;49.216;2023-05-16T07:01:03;5.68;;;4.75;;
67564;SDS011;54393;53.556;49.216;2023-05-16T07:03:30;6.07;;;5.07;;
67564;SDS011;54393;53.556;49.216;2023-05-16T07:05:56;8.50;;;4.43;;
67564;SDS011;54393;53.556;49.216;2023-05-16T07:08:23;6.68;;;4.87;;
67564;SDS011;54393;53.556;49.216;2023-05-16T07:10:50;9.13;;;5.43;;
67564;SDS011;54393;53.556;49.216;2023-05-16T07:13:22;6.55;;;4.87;;
67564;SDS011;54393;53.556;49.216;2023-05-16T07:15:48;5.12;;;4.60;;
67564;SDS011;54393;53.556;49.216;2023-05-16T07:18:15;6.90;;;5.45;;
67564;SDS011;54393;53.556;49.216;2023-05-16T07:20:41;5.60;;;5.00;;
67564;SDS011;54393;53.556;49.216;2023-05-16T07:23:08;6.05;;;5.03;;
67564;SDS011;54393;53.556;49.216;2023-05-16T07:25:34;5.85;;;4.95;;
67564;SDS011;54393;53.556;49.216;2023-05-16T07:28:01;6.40;;;5.10;;
67564;SDS011;54393;53.556;49.216;2023-05-16T07:30:27;6.68;;;5.37;;
67564;SDS011;54393;53.556;49.216;2023-05-16T07:32:54;6.22;;;5.45;;
67564;SDS011;54393;53.556;49.216;2023-05-16T07:35:21;6.68;;;5.78;;
67564;SDS011;54393;53.556;49.216;2023-05-16T07:37:47;7.22;;;5.57;;
67564;SDS011;54393;53.556;49.216;2023-05-16T07:40:14;7.15;;;5.55;;
67564;SDS011;54393;53.556;49.216;2023-05-16T07:42:42;6.37;;;5.62;;
67564;SDS011;54393;53.556;49.216;2023-05-16T07:45:08;6.45;;;5.70;;
67564;SDS011;54393;53.556;49.216;2023-05-16T07:47:35;6.43;;;5.82;;
67564;SDS011;54393;53.556;49.216;2023-05-16T07:50:02;6.68;;;5.35;;
67564;SDS011;54393;53.556;49.216;2023-05-16T07:52:28;6.05;;;5.53;;
67564;SDS011;54393;53.556;49.216;2023-05-16T07:54:55;6.70;;;6.10;;
67564;SDS011;54393;53.556;49.216;2023-05-16T07:57:22;6.50;;;5.10;;
67564;SDS011;54393;53.556;49.216;2023-05-16T07:59:49;8.25;;;5.97;;
67564;SDS011;54393;53.556;49.216;2023-05-16T08:02:16;6.65;;;5.97;;
67564;SDS011;54393;53.556;49.216;2023-05-16T08:04:43;7.93;;;6.18;;
67564;SDS011;54393;53.556;49.216;2023-05-16T08:07:09;7.22;;;6.20;;
67564;SDS011;54393;53.556;49.216;2023-05-16T08:09:36;6.50;;;5.97;;
67564;SDS011;54393;53.556;49.216;2023-05-16T08:12:02;7.78;;;5.87;;
67564;SDS011;54393;53.556;49.216;2023-05-16T08:14:29;6.85;;;6.22;;
67564;SDS011;54393;53.556;49.216;2023-05-16T08:16:59;6.53;;;5.90;;
67564;SDS011;54393;53.556;49.216;2023-05-16T08:19:26;7.18;;;6.47;;
67564;SDS011;54393;53.556;49.216;2023-05-16T08:21:53;8.13;;;6.18;;
67564;SDS011;54393;53.556;49.216;2023-05-16T08:24:20;8.38;;;6.47;;
67564;SDS011;54393;53.556;49.216;2023-05-16T08:26:47;8.40;;;7.18;;
67564;SDS011;54393;53.556;49.216;2023-05-16T08:29:13;7.25;;;6.50;;
67564;SDS011;54393;53.556;49.216;2023-05-16T08:31:40;8.25;;;6.47;;
67564;SDS011;54393;53.556;49.216;2023-05-16T08:34:06;8.82;;;6.65;;
67564;SDS011;54393;53.556;49.216;2023-05-16T08:36:35;7.75;;;6.62;;
67564;SDS011;54393;53.556;49.216;2023-05-16T08:39:02;7.12;;;6.43;;
67564;SDS011;54393;53.556;49.216;2023-05-16T08:41:29;8.23;;;7.10;;
67564;SDS011;54393;53.556;49.216;2023-05-16T08:43:56;7.57;;;6.55;;
67564;SDS011;54393;53.556;49.216;2023-05-16T08:46:22;7.65;;;6.93;;
67564;SDS011;54393;53.556;49.216;2023-05-16T08:48:50;8.43;;;7.50;;
67564;SDS011;54393;53.556;49.216;2023-05-16T08:51:18;7.75;;;7.03;;
67564;SDS011;54393;53.556;49.216;2023-05-16T08:53:49;8.27;;;7.05;;
67564;SDS011;54393;53.556;49.216;2023-05-16T08:56:22;8.23;;;7.50;;
67564;SDS011;54393;53.556;49.216;2023-05-16T08:58:50;8.63;;;7.78;;
67564;SDS011;54393;53.556;49.216;2023-05-16T09:01:20;9.07;;;8.18;;
67564;SDS011;54393;53.556;49.216;2023-05-16T09:03:47;11.23;;;8.25;;
67564;SDS011;54393;53.556;49.216;2023-05-16T09:06:14;8.18;;;7.37;;
67564;SDS011;54393;53.556;49.216;2023-05-16T09:08:41;8.30;;;7.60;;
67564;SDS011;54393;53.556;49.216;2023-05-16T09:11:08;8.50;;;7.70;;
67564;SDS011;54393;53.556;49.216;2023-05-16T09:13:36;12.88;;;8.60;;
67564;SDS011;54393;53.556;49.216;2023-05-16T09:16:07;10.73;;;8.95;;
67564;SDS011;54393;53.556;49.216;2023-05-16T09:18:35;12.02;;;8.77;;
67564;SDS011;54393;53.556;49.216;2023-05-16T09:21:02;9.88;;;7.95;;
67564;SDS011;54393;53.556;49.216;2023-05-16T09:23:32;9.05;;;8.18;;
67564;SDS011;54393;53.556;49.216;2023-05-16T09:25:59;10.20;;;8.35;;
67564;SDS011;54393;53.556;49.216;2023-05-16T09:28:25;9.80;;;8.48;;
67564;SDS011;54393;53.556;49.216;2023-05-16T09:30:52;9.75;;;8.80;;
67564;SDS011;54393;53.556;49.216;2023-05-16T09:33:22;9.70;;;8.70;;
67564;SDS011;54393;53.556;49.216;2023-05-16T09:38:25;9.38;;;8.35;;
67564;SDS011;54393;53.556;49.216;2023-05-16T09:40:53;9.50;;;8.57;;
67564;SDS011;54393;53.556;49.216;2023-05-16T09:43:24;10.85;;;9.75;;
67564;SDS011;54393;53.556;49.216;2023-05-16T09:45:51;11.25;;;10.05;;
67564;SDS011;54393;53.556;49.216;2023-05-16T09:48:19;11.60;;;9.35;;
67564;SDS011;54393;53.556;49.216;2023-05-16T09:50:47;10.27;;;9.27;;
67564;SDS011;54393;53.556;49.216;2023-05-16T09:53:17;13.25;;;9.40;;
67564;SDS011;54393;53.556;49.216;2023-05-16T09:56:03;12.40;;;9.60;;
67564;SDS011;54393;53.556;49.216;2023-05-16T09:58:32;12.10;;;10.13;;
67564;SDS011;54393;53.556;49.216;2023-05-16T10:00:59;9.55;;;8.60;;
67564;SDS011;54393;53.556;49.216;2023-05-16T10:03:27;11.73;;;9.95;;
67564;SDS011;54393;53.556;49.216;2023-05-16T10:05:54;12.00;;;9.75;;
67564;SDS011;54393;53.556;49.216;2023-05-16T10:08:21;12.07;;;10.10;;
67564;SDS011;54393;53.556;49.216;2023-05-16T10:10:51;10.38;;;9.27;;
67564;SDS011;54393;53.556;49.216;2023-05-16T10:13:29;11.20;;;9.02;;
67564;SDS011;54393;53.556;49.216;2023-05-16T10:15:57;11.43;;;9.30;;
67564;SDS011;54393;53.556;49.216;2023-05-16T10:18:28;10.45;;;9.13;;
67564;SDS011;54393;53.556;49.216;2023-05-16T10:20:56;10.15;;;9.13;;
67564;SDS011;54393;53.556;49.216;2023-05-16T10:23:26;12.37;;;10.15;;
67564;SDS011;54393;53.556;49.216;2023-05-16T10:25:53;11.82;;;9.85;;
67564;SDS011;54393;53.556;49.216;2023-05-16T10:28:20;11.20;;;10.13;;
67564;SDS011;54393;53.556;49.216;2023-05-16T10:30:47;11.40;;;10.25;;
67564;SDS011;54393;53.556;49.216;2023-05-16T10:33:15;13.25;;;10.15;;
67564;SDS011;54393;53.556;49.216;2023-05-16T10:35:43;10.70;;;9.60;;
67564;SDS011;54393;53.556;49.216;2023-05-16T10:38:11;11.48;;;10.38;;
67564;SDS011;54393;53.556;49.216;2023-05-16T10:40:42;11.43;;;10.15;;
67564;SDS011;54393;53.556;49.216;2023-05-16T10:43:08;11.35;;;10.25;;
67564;SDS011;54393;53.556;49.216;2023-05-16T10:45:39;11.20;;;10.05;;
67564;SDS011;54393;53.556;49.216;2023-05-16T10:48:09;10.77;;;9.68;;
67564;SDS011;54393;53.556;49.216;2023-05-16T10:50:38;11.88;;;10.63;;
67564;SDS011;54393;53.556;49.216;2023-05-16T10:53:51;11.65;;;10.55;;
67564;SDS011;54393;53.556;49.216;2023-05-16T11:06:22;11.68;;;10.55;;
67564;SDS011;54393;53.556;49.216;2023-05-16T11:09:16;11.48;;;10.32;;
67564;SDS011;54393;53.556;49.216;2023-05-16T11:14:24;11.88;;;10.25;;
67564;SDS011;54393;53.556;49.216;2023-05-16T11:24:54;12.20;;;10.90;;
67564;SDS011;54393;53.556;49.216;2023-05-16T11:27:27;11.55;;;10.35;;
67564;SDS011;54393;53.556;49.216;2023-05-16T11:29:55;12.27;;;11.05;;
67564;SDS011;54393;53.556;49.216;2023-05-16T11:32:25;11.65;;;10.55;;
67564;SDS011;54393;53.556;49.216;2023-05-16T11:34:51;11.57;;;10.48;;
67564;SDS011;54393;53.556;49.216;2023-05-16T11:37:18;11.70;;;10.50;;
67564;SDS011;54393;53.556;49.216;2023-05-16T11:39:48;13.32;;;10.30;;
67564;SDS011;54393;53.556;49.216;2023-05-16T11:42:15;12.37;;;10.25;;
67564;SDS011;54393;53.556;49.216;2023-05-16T11:44:42;11.93;;;10.65;;
67564;SDS011;54393;53.556;49.216;2023-05-16T11:47:09;11.93;;;10.80;;
67564;SDS011;54393;53.556;49.216;2023-05-16T11:49:36;12.35;;;11.15;;
67564;SDS011;54393;53.556;49.216;2023-05-16T11:52:03;12.15;;;10.38;;
67564;SDS011;54393;53.556;49.216;2023-05-16T11:54:30;12.00;;;10.73;;
67564;SDS011;54393;53.556;49.216;2023-05-16T11:56:58;11.40;;;10.23;;
67564;SDS011;54393;53.556;49.216;2023-05-16T11:59:26;12.98;;;11.55;;
67564;SDS011;54393;53.556;49.216;2023-05-16T12:01:52;12.23;;;10.95;;
67564;SDS011;54393;53.556;49.216;2023-05-16T12:04:19;11.73;;;10.55;;
67564;SDS011;54393;53.556;49.216;2023-05-16T12:06:56;11.90;;;10.85;;
67564;SDS011;54393;53.556;49.216;2023-05-16T12:09:27;13.55;;;10.48;;
67564;SDS011;54393;53.556;49.216;2023-05-16T12:11:54;12.35;;;11.05;;
67564;SDS011;54393;53.556;49.216;2023-05-16T12:14:21;12.05;;;10.52;;
67564;SDS011;54393;53.556;49.216;2023-05-16T12:16:48;12.88;;;11.57;;
67564;SDS011;54393;53.556;49.216;2023-05-16T12:19:16;11.82;;;10.73;;
67564;SDS011;54393;53.556;49.216;2023-05-16T12:21:42;11.93;;;10.65;;
67564;SDS011;54393;53.556;49.216;2023-05-16T12:24:09;12.05;;;10.90;;
67564;SDS011;54393;53.556;49.216;2023-05-16T12:26:39;11.85;;;10.40;;
67564;SDS011;54393;53.556;49.216;2023-05-16T12:29:07;11.98;;;10.60;;
67564;SDS011;54393;53.556;49.216;2023-05-16T12:31:36;12.57;;;11.27;;
67564;SDS011;54393;53.556;49.216;2023-05-16T12:34:04;13.98;;;11.82;;
67564;SDS011;54393;53.556;49.216;2023-05-16T12:36:38;11.98;;;10.77;;
67564;SDS011;54393;53.556;49.216;2023-05-16T12:39:06;13.07;;;11.25;;
67564;SDS011;54393;53.556;49.216;2023-05-16T12:41:39;12.90;;;11.55;;
67564;SDS011;54393;53.556;49.216;2023-05-16T12:44:14;11.50;;;10.15;;
67564;SDS011;54393;53.556;49.216;2023-05-16T12:46:42;12.02;;;10.80;;
67564;SDS011;54393;53.556;49.216;2023-05-16T12:49:19;12.80;;;11.18;;
67564;SDS011;54393;53.556;49.216;2023-05-16T12:51:50;12.40;;;11.10;;
67564;SDS011;54393;53.556;49.216;2023-05-16T12:54:18;15.15;;;11.25;;
67564;SDS011;54393;53.556;49.216;2023-05-16T12:56:46;12.73;;;10.35;;
67564;SDS011;54393;53.556;49.216;2023-05-16T12:59:13;12.18;;;10.02;;
67564;SDS011;54393;53.556;49.216;2023-05-16T13:01:40;13.82;;;10.98;;
67564;SDS011;54393;53.556;49.216;2023-05-16T13:04:06;15.18;;;10.80;;
67564;SDS011;54393;53.556;49.216;2023-05-16T13:06:33;12.63;;;11.32;;
67564;SDS011;54393;53.556;49.216;2023-05-16T13:09:00;14.38;;;10.95;;
67564;SDS011;54393;53.556;49.216;2023-05-16T13:11:29;13.38;;;10.65;;
67564;SDS011;54393;53.556;49.216;2023-05-16T13:13:57;12.88;;;10.15;;
67564;SDS011;54393;53.556;49.216;2023-05-16T13:16:24;18.33;;;10.68;;
67564;SDS011;54393;53.556;49.216;2023-05-16T13:18:50;13.77;;;11.43;;
67564;SDS011;54393;53.556;49.216;2023-05-16T13:21:17;12.13;;;10.70;;
67564;SDS011;54393;53.556;49.216;2023-05-16T13:23:44;13.27;;;10.65;;
67564;SDS011;54393;53.556;49.216;2023-05-16T13:26:10;11.27;;;9.95;;
67564;SDS011;54393;53.556;49.216;2023-05-16T13:28:36;15.13;;;11.27;;
67564;SDS011;54393;53.556;49.216;2023-05-16T13:31:03;12.35;;;11.05;;
67564;SDS011;54393;53.556;49.216;2023-05-16T13:33:30;13.32;;;11.30;;
67564;SDS011;54393;53.556;49.216;2023-05-16T13:35:56;13.20;;;11.27;;
67564;SDS011;54393;53.556;49.216;2023-05-16T13:38:22;12.32;;;10.57;;
67564;SDS011;54393;53.556;49.216;2023-05-16T13:40:50;12.15;;;10.20;;
67564;SDS011;54393;53.556;49.216;2023-05-16T13:43:16;10.95;;;9.95;;
67564;SDS011;54393;53.556;49.216;2023-05-16T13:45:43;12.30;;;10.98;;
67564;SDS011;54393;53.556;49.216;2023-05-16T13:48:10;12.68;;;10.98;;
67564;SDS011;54393;53.556;49.216;2023-05-16T13:50:36;12.63;;;11.32;;
67564;SDS011;54393;53.556;49.216;2023-05-16T13:53:03;13.18;;;10.52;;
67564;SDS011;54393;53.556;49.216;2023-05-16T13:55:30;11.57;;;10.48;;
67564;SDS011;54393;53.556;49.216;2023-05-16T13:57:56;13.95;;;11.20;;
67564;SDS011;54393;53.556;49.216;2023-05-16T14:00:24;18.60;;;11.35;;
67564;SDS011;54393;53.556;49.216;2023-05-16T14:02:51;14.07;;;11.02;;
67564;SDS011;54393;53.556;49.216;2023-05-16T14:05:17;11.73;;;10.23;;
67564;SDS011;54393;53.556;49.216;2023-05-16T14:07:44;14.00;;;11.30;;
67564;SDS011;54393;53.556;49.216;2023-05-16T14:10:10;13.75;;;10.55;;
67564;SDS011;54393;53.556;49.216;2023-05-16T14:12:37;13.02;;;10.15;;
67564;SDS011;54393;53.556;49.216;2023-05-16T14:15:04;11.25;;;10.15;;
67564;SDS011;54393;53.556;49.216;2023-05-16T14:17:31;15.55;;;10.90;;
67564;SDS011;54393;53.556;49.216;2023-05-16T14:19:58;12.88;;;11.25;;
67564;SDS011;54393;53.556;49.216;2023-05-16T14:22:24;15.68;;;10.82;;
67564;SDS011;54393;53.556;49.216;2023-05-16T14:24:52;12.80;;;10.95;;
67564;SDS011;54393;53.556;49.216;2023-05-16T14:27:19;13.55;;;10.65;;
67564;SDS011;54393;53.556;49.216;2023-05-16T14:29:45;13.15;;;10.60;;
67564;SDS011;54393;53.556;49.216;2023-05-16T14:32:13;12.00;;;10.80;;
67564;SDS011;54393;53.556;49.216;2023-05-16T14:34:39;12.37;;;10.80;;
67564;SDS011;54393;53.556;49.216;2023-05-16T14:37:06;12.82;;;10.13;;
67564;SDS011;54393;53.556;49.216;2023-05-16T14:39:34;12.25;;;10.48;;
67564;SDS011;54393;53.556;49.216;2023-05-16T14:42:01;11.88;;;10.68;;
67564;SDS011;54393;53.556;49.216;2023-05-16T14:44:27;12.45;;;10.75;;
67564;SDS011;54393;53.556;49.216;2023-05-16T14:46:54;11.57;;;10.40;;
67564;SDS011;54393;53.556;49.216;2023-05-16T14:49:20;12.05;;;10.80;;
67564;SDS011;54393;53.556;49.216;2023-05-16T14:51:46;11.27;;;10.15;;
67564;SDS011;54393;53.556;49.216;2023-05-16T14:54:14;14.73;;;10.85;;
67564;SDS011;54393;53.556;49.216;2023-05-16T14:56:41;11.98;;;10.05;;
67564;SDS011;54393;53.556;49.216;2023-05-16T14:59:07;11.43;;;10.32;;
67564;SDS011;54393;53.556;49.216;2023-05-16T15:01:34;13.07;;;10.20;;
67564;SDS011;54393;53.556;49.216;2023-05-16T15:04:01;11.50;;;10.27;;
67564;SDS011;54393;53.556;49.216;2023-05-16T15:06:27;12.37;;;11.05;;